Time;durP1;ratioP1;P1;durP2;ratioP2;P2;SDS_P1;SDS_P2;PMS_P1;PMS_P2;Temp;Humidity;BMP_temperature;BMP_pressure;BME280_temperature;BME280_humidity;BME280_pressure;Samples;Min_cycle;Max_cycle;Signal;HPM_P1;HPM_P2
2022/12/30 00:01:08;;;;;;;73.60;47.20;;;;;;;2.42;100.00;98782.64;106068;1288;59320;-71
2022/12/30 00:03:35;;;;;;;85.60;55.50;;;;;;;2.38;100.00;98787.48;106059;1288;61058;-72
2022/12/30 00:06:14;;;;;;;80.70;48.40;;;;;;;2.36;100.00;98788.08;106053;1288;64928;-72
2022/12/30 00:08:46;;;;;;;80.10;49.00;;;;;;;2.35;100.00;98788.98;104562;1288;1002371;-72
2022/12/30 00:11:20;;;;;;;72.70;45.90;;;;;;;2.33;100.00;98784.37;106065;1288;58890;-72
2022/12/30 00:34:17;;;;;;;76.10;48.10;;;;;;;1.78;100.00;98772.30;106063;1288;65046;-72
2022/12/30 00:36:43;;;;;;;74.70;46.90;;;;;;;1.73;100.00;98769.50;105860;1291;58989;-72
2022/12/30 00:39:10;;;;;;;73.00;46.50;;;;;;;1.66;100.00;98766.05;106078;1288;58861;-72
2022/12/30 00:44:21;;;;;;;72.60;47.50;;;;;;;1.56;100.00;98763.79;106037;1281;60274;-72
2022/12/30 00:46:48;;;;;;;78.60;48.40;;;;;;;1.53;100.00;98758.79;106046;1288;65101;-72
2022/12/30 00:57:29;;;;;;;74.10;47.40;;;;;;;1.37;100.00;98763.55;106083;1288;58973;-72
2022/12/30 00:59:56;;;;;;;77.30;48.00;;;;;;;1.33;100.00;98764.54;106056;1281;65220;-72
2022/12/30 01:02:22;;;;;;;73.60;46.20;;;;;;;1.28;100.00;98762.25;105741;1294;58913;-71
2022/12/30 01:04:48;;;;;;;73.30;48.10;;;;;;;1.23;100.00;98762.77;106060;1288;58965;-71
2022/12/30 01:07:14;;;;;;;79.20;48.70;;;;;;;1.18;100.00;98763.47;106074;1289;58848;-71
2022/12/30 01:09:41;;;;;;;79.30;50.50;;;;;;;1.16;100.00;98768.78;106072;1288;58937;-72
2022/12/30 01:12:08;;;;;;;82.60;51.80;;;;;;;1.16;100.00;98767.56;106060;1282;59097;-73
2022/12/30 01:14:36;;;;;;;78.50;50.00;;;;;;;1.16;100.00;98767.73;106075;1289;58885;-72
2022/12/30 01:17:04;;;;;;;79.60;50.30;;;;;;;1.16;100.00;98761.80;106071;1288;58959;-72
2022/12/30 01:19:30;;;;;;;87.30;53.00;;;;;;;1.16;100.00;98759.17;105927;1291;67021;-72
2022/12/30 01:21:57;;;;;;;86.70;53.50;;;;;;;1.13;100.00;98758.56;106050;1289;59264;-72
2022/12/30 01:24:24;;;;;;;94.60;57.20;;;;;;;1.08;100.00;98755.39;106066;1283;63928;-72
2022/12/30 01:26:50;;;;;;;110.80;64.10;;;;;;;1.05;100.00;98754.27;106062;1282;59196;-72
2022/12/30 01:29:34;;;;;;;110.30;66.20;;;;;;;1.02;100.00;98751.05;105933;1288;59017;-73
2022/12/30 01:32:01;;;;;;;114.00;68.40;;;;;;;1.00;100.00;98754.08;106067;1281;74774;-72
2022/12/30 01:34:27;;;;;;;132.00;77.50;;;;;;;1.00;100.00;98751.47;106064;1285;60204;-72
2022/12/30 01:36:53;;;;;;;125.10;75.50;;;;;;;1.00;100.00;98745.69;106041;1288;58930;-72
2022/12/30 01:39:19;;;;;;;107.00;64.80;;;;;;;1.02;100.00;98744.04;106043;1285;58977;-73
2022/12/30 01:41:46;;;;;;;92.00;57.20;;;;;;;1.02;100.00;98740.04;106061;1288;58926;-73
2022/12/30 01:44:40;;;;;;;88.60;56.10;;;;;;;0.99;100.00;98731.90;106080;1281;58926;-72
2022/12/30 01:47:10;;;;;;;87.50;58.30;;;;;;;0.99;100.00;98745.70;106083;1288;68886;-72
2022/12/30 01:49:39;;;;;;;;;;;;;;;0.98;100.00;98756.42;106067;1289;63891;-72
2022/12/30 01:52:05;;;;;;;80.50;51.80;;;;;;;0.94;100.00;98757.08;105923;1291;59015;-72
2022/12/30 01:54:34;;;;;;;88.70;54.90;;;;;;;0.94;100.00;98749.91;106077;1291;58957;-72
2022/12/30 01:57:00;;;;;;;82.60;56.00;;;;;;;0.94;100.00;98746.23;106059;1281;65984;-72
2022/12/30 01:59:27;;;;;;;85.70;57.30;;;;;;;0.96;100.00;98737.79;106069;1288;58892;-72
2022/12/30 02:01:53;;;;;;;77.90;54.40;;;;;;;0.97;100.00;98735.13;106044;1287;58901;-71
2022/12/30 02:04:24;;;;;;;88.40;57.40;;;;;;;0.96;100.00;98754.55;106073;1281;59046;-72
2022/12/30 02:07:08;;;;;;;108.70;68.70;;;;;;;0.92;100.00;98761.69;106081;1288;59078;-72
2022/12/30 02:09:35;;;;;;;120.10;78.50;;;;;;;0.87;100.00;98760.27;106065;1288;67560;-72
2022/12/30 02:12:04;;;;;;;122.80;75.60;;;;;;;0.87;100.00;98757.46;106099;1288;59795;-72
2022/12/30 02:14:34;;;;;;;114.90;71.60;;;;;;;0.86;100.00;98755.38;106047;1287;64154;-71
2022/12/30 02:17:21;;;;;;;113.70;71.20;;;;;;;0.89;100.00;98754.78;105763;1291;58895;-71
2022/12/30 02:20:06;;;;;;;100.00;66.30;;;;;;;0.94;100.00;98753.05;106048;1288;58761;-71
2022/12/30 02:23:17;;;;;;;97.60;66.20;;;;;;;1.01;100.00;98749.34;106071;1288;65926;-71
2022/12/30 02:26:14;;;;;;;102.60;66.90;;;;;;;1.03;100.00;98752.41;105528;1295;60142;-71
2022/12/30 02:28:59;;;;;;;115.90;72.70;;;;;;;1.04;100.00;98752.02;105462;1290;64784;-73
2022/12/30 02:31:55;;;;;;;124.60;76.00;;;;;;;1.03;100.00;98752.77;105530;1301;58949;-72
2022/12/30 02:34:42;;;;;;;130.50;84.80;;;;;;;1.01;100.00;98748.79;105317;1300;58992;-72
2022/12/30 02:37:30;;;;;;;128.40;83.80;;;;;;;1.01;100.00;98751.27;105543;1297;64456;-72
2022/12/30 02:40:19;;;;;;;120.80;82.00;;;;;;;1.00;100.00;98749.89;105534;1298;60975;-72
2022/12/30 02:45:55;;;;;;;129.10;81.60;;;;;;;1.05;100.00;98745.54;105518;1293;59284;-72
2022/12/30 02:48:26;;;;;;;130.80;85.70;;;;;;;1.07;100.00;98751.75;105545;1296;59255;-72
2022/12/30 02:53:39;;;;;;;124.50;84.00;;;;;;;1.13;100.00;98763.11;105554;1295;61066;-73
2022/12/30 02:56:06;;;;;;;126.70;83.00;;;;;;;1.14;100.00;98768.86;105525;1297;62580;-72
2022/12/30 02:58:37;;;;;;;130.60;82.70;;;;;;;1.13;100.00;98764.70;105527;1290;59066;-72
2022/12/30 03:04:48;;;;;;;112.80;70.30;;;;;;;1.08;100.00;98760.31;106073;1289;67059;-72
2022/12/30 03:07:32;;;;;;;117.70;77.50;;;;;;;1.05;100.00;98758.81;106026;1282;59854;-72
2022/12/30 03:13:03;;;;;;;131.50;83.50;;;;;;;1.06;100.00;98765.23;106072;1288;58783;-72
2022/12/30 03:15:49;;;;;;;122.90;81.20;;;;;;;1.08;100.00;98768.16;105790;1285;58984;-72
2022/12/30 03:18:16;;;;;;;129.90;82.40;;;;;;;1.09;100.00;98765.15;106037;1287;66895;-72
2022/12/30 03:20:45;;;;;;;119.10;79.40;;;;;;;1.10;100.00;98767.55;105899;1285;69905;-73
2022/12/30 03:28:48;;;;;;;115.10;84.50;;;;;;;1.01;100.00;98778.02;106055;1286;58974;-73
2022/12/30 03:31:15;;;;;;;116.70;83.70;;;;;;;0.98;100.00;98785.46;105848;1291;66909;-72
2022/12/30 03:33:43;;;;;;;120.50;86.50;;;;;;;0.96;100.00;98797.42;106019;1292;60159;-72
2022/12/30 03:36:33;;;;;;;123.50;87.00;;;;;;;0.95;100.00;98803.92;106055;1287;64921;-71
2022/12/30 03:39:10;;;;;;;122.60;82.50;;;;;;;0.97;100.00;98809.64;106051;1288;58831;-72
2022/12/30 03:41:37;;;;;;;133.60;83.30;;;;;;;0.99;100.00;98811.83;106068;1288;58999;-74
2022/12/30 03:44:04;;;;;;;124.40;83.90;;;;;;;1.04;100.00;98812.04;106073;1289;66018;-72
2022/12/30 03:46:32;;;;;;;118.60;83.20;;;;;;;1.06;100.00;98812.48;106047;1288;58800;-72
2022/12/30 03:48:59;;;;;;;117.80;84.70;;;;;;;1.08;100.00;98815.59;106068;1288;65072;-73
2022/12/30 03:51:25;;;;;;;121.70;84.10;;;;;;;1.09;100.00;98819.58;106063;1288;59106;-73
2022/12/30 03:53:53;;;;;;;124.00;84.20;;;;;;;1.09;100.00;98823.60;106072;1288;58976;-73
2022/12/30 03:56:19;;;;;;;121.30;86.50;;;;;;;1.11;100.00;98819.52;106076;1288;66884;-72
2022/12/30 03:58:45;;;;;;;121.30;88.80;;;;;;;1.14;100.00;98825.54;106061;1281;59290;-71
2022/12/30 04:01:11;;;;;;;127.00;87.90;;;;;;;1.20;100.00;98827.30;105690;1294;59059;-72
2022/12/30 04:03:37;;;;;;;126.40;89.40;;;;;;;1.21;100.00;98827.42;106064;1289;58930;-71
2022/12/30 04:06:03;;;;;;;120.60;85.80;;;;;;;1.22;100.00;98827.23;106062;1282;58971;-71
2022/12/30 04:08:30;;;;;;;117.00;85.40;;;;;;;1.19;100.00;98832.56;106067;1287;58930;-72
2022/12/30 04:10:56;;;;;;;111.50;82.80;;;;;;;1.15;100.00;98839.16;106056;1285;59223;-72
2022/12/30 04:13:22;;;;;;;107.40;79.50;;;;;;;1.09;100.00;98847.55;106063;1275;59111;-71
2022/12/30 04:15:50;;;;;;;108.40;81.10;;;;;;;1.07;100.00;98852.34;105852;1291;59052;-72
2022/12/30 04:18:17;;;;;;;111.90;83.20;;;;;;;1.07;100.00;98850.61;106081;1288;58829;-73
2022/12/30 04:20:45;;;;;;;108.40;78.90;;;;;;;1.07;100.00;98848.16;106070;1288;58946;-71
2022/12/30 04:23:14;;;;;;;108.20;79.90;;;;;;;1.09;100.00;98859.45;106082;1288;59822;-73
2022/12/30 04:25:40;;;;;;;120.50;86.80;;;;;;;1.12;100.00;98868.80;106046;1287;63997;-72
2022/12/30 04:28:06;;;;;;;124.90;88.10;;;;;;;1.15;100.00;98870.81;106055;1281;58937;-72
2022/12/30 04:30:33;;;;;;;117.50;84.50;;;;;;;1.20;100.00;98869.45;106066;1280;58902;-72
2022/12/30 04:32:59;;;;;;;116.80;82.80;;;;;;;1.23;100.00;98868.31;105905;1291;59188;-72
2022/12/30 04:35:26;;;;;;;132.10;80.10;;;;;;;1.25;100.00;98868.79;106066;1294;58852;-72
2022/12/30 04:37:52;;;;;;;119.20;77.40;;;;;;;1.25;100.00;98872.44;106023;1287;58860;-72
2022/12/30 04:40:18;;;;;;;121.20;74.50;;;;;;;1.25;100.00;98873.65;106035;1291;59003;-72
2022/12/30 04:42:44;;;;;;;111.50;73.10;;;;;;;1.24;100.00;98880.71;106051;1280;58955;-73
2022/12/30 04:45:11;;;;;;;112.80;71.20;;;;;;;1.23;100.00;98885.80;105941;1288;58976;-72
2022/12/30 04:47:38;;;;;;;112.60;70.60;;;;;;;1.25;100.00;98893.10;105717;1287;59628;-72
2022/12/30 04:50:04;;;;;;;117.80;71.20;;;;;;;1.26;100.00;98894.30;106073;1288;58891;-72
2022/12/30 04:52:30;;;;;;;106.50;70.30;;;;;;;1.30;100.00;98907.30;106076;1282;59022;-72
2022/12/30 04:54:57;;;;;;;117.20;75.50;;;;;;;1.31;100.00;98910.92;106072;1287;58778;-72
2022/12/30 04:57:24;;;;;;;112.80;71.30;;;;;;;1.34;100.00;98905.94;106060;1288;59109;-72
2022/12/30 04:59:49;;;;;;;117.00;71.60;;;;;;;1.39;100.00;98905.45;105788;1281;59097;-72
2022/12/30 05:02:16;;;;;;;106.30;72.00;;;;;;;1.42;100.00;98901.14;106080;1292;59386;-72
2022/12/30 05:04:42;;;;;;;102.20;72.70;;;;;;;1.45;100.00;98897.00;106045;1289;58884;-72
2022/12/30 05:07:08;;;;;;;108.80;72.80;;;;;;;1.48;100.00;98905.33;106067;1284;58833;-71
2022/12/30 05:09:34;;;;;;;106.10;73.90;;;;;;;1.51;100.00;98912.59;106084;1281;58947;-73
2022/12/30 05:12:00;;;;;;;109.70;70.90;;;;;;;1.54;100.00;98918.26;106094;1283;59119;-72
2022/12/30 05:14:26;;;;;;;100.90;67.50;;;;;;;1.59;100.00;98917.42;106031;1288;58836;-72
2022/12/30 05:16:53;;;;;;;91.70;68.50;;;;;;;1.63;100.00;98913.61;106057;1289;58970;-73
2022/12/30 05:19:19;;;;;;;101.70;69.80;;;;;;;1.67;100.00;98916.45;106061;1281;59210;-72
2022/12/30 05:21:46;;;;;;;104.40;72.20;;;;;;;1.71;100.00;98925.27;106074;1282;59077;-73
2022/12/30 05:26:56;;;;;;;108.10;71.40;;;;;;;1.71;100.00;98930.52;106052;1289;63895;-73
2022/12/30 05:29:23;;;;;;;99.40;70.00;;;;;;;1.72;100.00;98929.79;106055;1289;58992;-72
2022/12/30 05:31:50;;;;;;;104.60;70.10;;;;;;;1.74;100.00;98927.63;106077;1288;58941;-72
2022/12/30 05:34:16;;;;;;;108.90;73.50;;;;;;;1.74;100.00;98930.06;106065;1285;58896;-72
2022/12/30 05:36:42;;;;;;;90.30;65.10;;;;;;;1.77;100.00;98934.89;106063;1287;59974;-71
2022/12/30 05:39:11;;;;;;;99.50;70.20;;;;;;;1.81;100.00;98940.20;106078;1281;58974;-72
2022/12/30 05:41:38;;;;;;;90.50;62.90;;;;;;;1.84;100.00;98943.21;105906;1288;186151;-72
2022/12/30 05:44:04;;;;;;;86.20;61.60;;;;;;;1.90;100.00;98951.29;106061;1289;58894;-71
2022/12/30 05:46:31;;;;;;;91.40;61.70;;;;;;;1.95;100.00;98952.52;106077;1289;58830;-72
2022/12/30 05:48:58;;;;;;;81.50;58.60;;;;;;;2.01;100.00;98953.39;106060;1288;61115;-73
2022/12/30 05:51:24;;;;;;;85.70;57.20;;;;;;;2.06;100.00;98954.41;106075;1287;58985;-71
2022/12/30 05:53:50;;;;;;;82.90;55.90;;;;;;;2.12;100.00;98958.09;106054;1287;58967;-71
2022/12/30 05:56:16;;;;;;;79.40;53.80;;;;;;;2.18;100.00;98958.42;106062;1287;59078;-72
2022/12/30 05:58:42;;;;;;;79.80;52.90;;;;;;;2.25;100.00;98959.42;106049;1287;59116;-73
2022/12/30 06:01:08;;;;;;;79.70;54.10;;;;;;;2.30;100.00;98962.04;105334;1281;1002318;-72
2022/12/30 06:03:35;;;;;;;80.90;56.20;;;;;;;2.36;100.00;98966.73;106044;1289;59453;-72
2022/12/30 06:06:04;;;;;;;86.00;60.60;;;;;;;2.42;100.00;98971.98;106052;1288;58957;-73
2022/12/30 06:08:30;;;;;;;86.20;60.40;;;;;;;2.46;100.00;98976.40;106085;1289;58732;-73
2022/12/30 06:10:57;;;;;;;78.60;56.70;;;;;;;2.51;100.00;98979.23;106071;1287;59072;-72
2022/12/30 06:13:23;;;;;;;87.10;58.50;;;;;;;2.56;100.00;98981.48;106085;1288;58928;-72
2022/12/30 06:15:49;;;;;;;77.60;55.50;;;;;;;2.60;100.00;98988.35;106067;1289;59045;-72
2022/12/30 06:18:16;;;;;;;77.50;53.20;;;;;;;2.64;100.00;98988.21;106062;1288;58882;-72
2022/12/30 06:20:44;;;;;;;79.80;55.00;;;;;;;2.68;100.00;98992.14;106073;1288;58918;-72
2022/12/30 06:23:11;;;;;;;81.80;54.60;;;;;;;2.70;100.00;98993.64;105929;1290;64439;-72
2022/12/30 06:25:38;;;;;;;74.20;51.20;;;;;;;2.72;100.00;98996.73;106050;1281;60740;-72
2022/12/30 06:28:04;;;;;;;78.30;53.10;;;;;;;2.74;100.00;98999.98;106068;1288;59346;-73
2022/12/30 06:30:31;;;;;;;68.30;50.10;;;;;;;2.76;100.00;99002.73;105683;1287;59299;-71
2022/12/30 06:32:57;;;;;;;70.50;49.30;;;;;;;2.78;100.00;99001.44;106065;1281;58912;-72
2022/12/30 06:35:24;;;;;;;67.40;48.90;;;;;;;2.80;100.00;99006.80;106050;1288;59040;-72
2022/12/30 06:37:51;;;;;;;64.50;48.00;;;;;;;2.81;100.00;99012.36;105660;1293;59053;-71
2022/12/30 06:40:17;;;;;;;58.70;41.50;;;;;;;2.83;100.00;99018.61;106004;1292;64928;-73
2022/12/30 06:42:44;;;;;;;55.20;39.50;;;;;;;2.85;100.00;99021.16;106056;1281;59016;-72
2022/12/30 06:45:10;;;;;;;55.90;41.70;;;;;;;2.89;100.00;99024.04;106069;1287;58774;-71
2022/12/30 06:47:36;;;;;;;57.80;43.70;;;;;;;2.91;100.00;99030.61;106068;1287;59226;-72
2022/12/30 06:50:03;;;;;;;58.90;43.30;;;;;;;2.93;100.00;99032.83;106102;1286;58807;-72
2022/12/30 06:52:29;;;;;;;53.90;41.30;;;;;;;2.95;100.00;99031.19;106041;1289;58902;-72
2022/12/30 06:54:55;;;;;;;63.40;45.30;;;;;;;2.96;100.00;99037.79;106057;1287;59246;-72
2022/12/30 06:57:21;;;;;;;54.60;41.10;;;;;;;2.99;100.00;99045.96;106061;1291;58960;-73
2022/12/30 06:59:47;;;;;;;59.30;43.20;;;;;;;3.02;100.00;99049.38;106081;1281;59338;-72
2022/12/30 07:02:14;;;;;;;55.40;40.90;;;;;;;3.03;100.00;99049.31;106059;1288;59117;-72
2022/12/30 07:04:40;;;;;;;56.20;42.90;;;;;;;3.07;100.00;99056.02;106069;1289;58971;-72
2022/12/30 07:07:06;;;;;;;57.80;41.20;;;;;;;3.09;100.00;99055.95;106071;1287;59003;-72
2022/12/30 07:09:32;;;;;;;55.80;42.10;;;;;;;3.12;100.00;99060.96;106061;1283;59281;-72
2022/12/30 07:11:59;;;;;;;56.10;42.50;;;;;;;3.13;100.00;99058.26;106056;1287;59007;-72
2022/12/30 07:14:24;;;;;;;55.50;41.50;;;;;;;3.16;100.00;99066.24;106076;1289;59039;-72
2022/12/30 07:16:51;;;;;;;56.80;41.80;;;;;;;3.17;100.00;99074.11;105899;1292;59185;-71
2022/12/30 07:19:17;;;;;;;54.80;40.60;;;;;;;3.16;100.00;99080.29;106102;1289;59022;-72
2022/12/30 07:21:43;;;;;;;49.70;37.20;;;;;;;3.18;100.00;99078.83;106043;1289;66803;-73
2022/12/30 07:24:09;;;;;;;47.40;34.90;;;;;;;3.22;100.00;99079.04;105601;1275;58987;-72
2022/12/30 07:26:35;;;;;;;45.30;32.20;;;;;;;3.27;100.00;99082.89;105754;1291;59368;-72
2022/12/30 07:29:01;;;;;;;36.50;26.40;;;;;;;3.33;100.00;99077.40;106039;1289;58901;-72
2022/12/30 07:31:27;;;;;;;34.00;25.10;;;;;;;3.39;100.00;99080.70;106064;1287;59176;-72
2022/12/30 07:33:54;;;;;;;33.40;25.00;;;;;;;3.46;100.00;99085.33;106077;1295;59018;-72
2022/12/30 07:36:20;;;;;;;30.40;22.60;;;;;;;3.54;100.00;99083.65;106086;1289;58866;-72
2022/12/30 07:38:46;;;;;;;26.70;20.70;;;;;;;3.64;100.00;99086.27;106067;1289;59137;-72
2022/12/30 07:41:13;;;;;;;25.70;18.90;;;;;;;3.75;100.00;99083.77;106044;1287;58930;-72
2022/12/30 07:43:39;;;;;;;19.90;17.10;;;;;;;3.85;100.00;99088.10;106049;1287;58964;-72
2022/12/30 07:46:08;;;;;;;21.20;16.80;;;;;;;3.94;100.00;99087.05;106065;1289;59193;-72
2022/12/30 07:48:35;;;;;;;23.10;16.70;;;;;;;4.03;100.00;99089.34;105907;1292;59294;-72
2022/12/30 07:51:13;;;;;;;21.40;16.80;;;;;;;4.13;100.00;99095.28;106055;1289;65093;-78
2022/12/30 07:53:40;;;;;;;23.90;17.90;;;;;;;4.23;100.00;99095.77;105516;1295;59494;-80
2022/12/30 07:56:08;;;;;;;20.80;16.10;;;;;;;4.31;100.00;99097.05;105996;1281;58950;-73
2022/12/30 07:58:34;;;;;;;20.30;15.60;;;;;;;4.37;100.00;99103.47;106043;1287;67205;-75
2022/12/30 08:01:04;;;;;;;21.10;16.50;;;;;;;4.45;100.00;99108.11;106061;1289;59199;-82
2022/12/30 08:03:32;;;;;;;23.10;17.70;;;;;;;4.53;100.00;99110.94;105858;1292;63939;-83
2022/12/30 08:06:07;;;;;;;21.60;16.90;;;;;;;4.59;100.00;99118.77;105874;1290;59149;-72
2022/12/30 08:08:33;;;;;;;21.70;17.00;;;;;;;4.65;100.00;99119.45;106058;1289;58757;-72
2022/12/30 08:11:00;;;;;;;23.50;18.50;;;;;;;4.69;100.00;99122.44;106059;1281;66930;-72
2022/12/30 08:13:27;;;;;;;21.90;18.20;;;;;;;4.72;100.00;99127.45;106067;1295;59972;-72
2022/12/30 08:15:53;;;;;;;22.60;19.00;;;;;;;4.73;100.00;99125.61;106038;1289;59025;-73
2022/12/30 08:18:19;;;;;;;21.50;17.70;;;;;;;4.74;100.00;99129.44;105679;1295;59207;-72
2022/12/30 08:20:45;;;;;;;23.00;17.80;;;;;;;4.76;100.00;99130.77;105783;1298;59273;-72
2022/12/30 08:23:11;;;;;;;23.00;18.10;;;;;;;4.78;100.00;99135.61;105879;1297;59041;-71
2022/12/30 08:25:37;;;;;;;21.20;18.00;;;;;;;4.79;100.00;99145.25;105832;1287;59365;-72
2022/12/30 08:28:03;;;;;;;23.10;17.50;;;;;;;4.81;100.00;99147.08;106033;1291;58941;-72
2022/12/30 08:30:31;;;;;;;22.20;16.20;;;;;;;4.86;100.00;99144.29;106052;1287;58918;-72
2022/12/30 08:32:57;;;;;;;21.20;18.10;;;;;;;4.89;100.00;99147.12;106056;1289;58814;-73
2022/12/30 08:35:23;;;;;;;21.90;16.40;;;;;;;4.93;100.00;99154.91;106036;1289;59426;-73
2022/12/30 08:37:50;;;;;;;22.90;18.20;;;;;;;4.97;100.00;99165.80;106045;1289;58973;-73
2022/12/30 08:40:16;;;;;;;25.80;18.50;;;;;;;5.02;100.00;99174.43;106072;1288;58987;-72
2022/12/30 08:42:42;;;;;;;28.70;20.40;;;;;;;5.07;100.00;99170.35;106037;1288;58871;-73
2022/12/30 08:45:09;;;;;;;31.70;20.00;;;;;;;5.14;100.00;99172.84;106056;1287;58979;-71
2022/12/30 08:47:35;;;;;;;24.60;19.20;;;;;;;5.21;100.00;99177.52;106049;1289;59011;-72
2022/12/30 08:50:03;;;;;;;26.20;20.00;;;;;;;5.26;100.00;99180.83;106050;1289;59310;-73
2022/12/30 08:52:30;;;;;;;25.30;20.40;;;;;;;5.31;100.00;99186.60;106018;1287;58963;-72
2022/12/30 08:54:55;;;;;;;23.70;19.40;;;;;;;5.37;100.00;99184.20;106035;1289;58934;-72
2022/12/30 08:57:22;;;;;;;22.20;19.00;;;;;;;5.44;100.00;99182.68;106048;1293;59317;-72
2022/12/30 08:59:48;;;;;;;21.80;18.00;;;;;;;5.53;100.00;99178.80;105866;1288;59052;-72
2022/12/30 09:02:14;;;;;;;22.60;18.40;;;;;;;5.62;100.00;99179.79;106072;1287;59080;-74
2022/12/30 09:04:41;;;;;;;25.60;19.20;;;;;;;5.74;100.00;99185.11;106015;1288;59013;-72
2022/12/30 09:07:07;;;;;;;22.40;17.50;;;;;;;5.86;100.00;99190.55;105794;1295;59010;-72
2022/12/30 09:09:33;;;;;;;25.10;19.40;;;;;;;6.00;100.00;99189.80;106058;1294;58993;-73
2022/12/30 09:11:59;;;;;;;27.70;20.10;;;;;;;6.15;100.00;99191.75;106028;1288;58869;-72
2022/12/30 09:14:25;;;;;;;25.40;19.30;;;;;;;6.25;100.00;99198.50;106061;1295;58999;-72
2022/12/30 09:16:51;;;;;;;24.90;19.40;;;;;;;6.33;100.00;99203.98;106054;1289;59033;-72
2022/12/30 09:19:18;;;;;;;23.00;19.30;;;;;;;6.35;100.00;99201.77;106038;1289;59184;-72
2022/12/30 09:21:44;;;;;;;23.30;18.90;;;;;;;6.40;100.00;99199.44;105964;1294;58971;-71
2022/12/30 09:24:10;;;;;;;23.60;18.30;;;;;;;6.47;100.00;99194.14;106055;1288;60925;-72
2022/12/30 09:26:37;;;;;;;23.10;18.60;;;;;;;6.56;100.00;99186.83;106041;1288;58917;-72
2022/12/30 09:29:03;;;;;;;21.70;17.20;;;;;;;6.64;100.00;99181.54;106068;1287;59178;-72
2022/12/30 09:31:29;;;;;;;23.70;18.90;;;;;;;6.67;100.00;99179.58;105834;1293;58942;-73
2022/12/30 09:33:56;;;;;;;22.00;18.80;;;;;;;6.70;100.00;99176.08;106073;1289;58859;-72
2022/12/30 09:36:23;;;;;;;30.50;24.70;;;;;;;6.72;100.00;99177.27;106040;1289;59203;-71
2022/12/30 09:38:49;;;;;;;26.30;18.90;;;;;;;6.72;100.00;99185.36;106053;1289;59069;-72
2022/12/30 09:44:46;;;;;;;21.80;17.90;;;;;;;6.72;100.00;99179.36;105515;1298;58977;-72
2022/12/30 09:47:25;;;;;;;21.60;18.10;;;;;;;6.76;100.00;99185.17;105288;1299;65978;-73
2022/12/30 09:49:59;;;;;;;24.00;18.30;;;;;;;6.80;100.00;99184.27;105531;1293;61033;-72
2022/12/30 09:52:31;;;;;;;19.90;16.70;;;;;;;6.88;100.00;99180.89;105519;1297;65073;-72
2022/12/30 09:55:05;;;;;;;22.00;17.10;;;;;;;6.97;100.00;99175.11;105365;1300;59146;-71
2022/12/30 09:57:35;;;;;;;27.40;18.60;;;;;;;7.07;100.00;99172.03;105465;1305;59082;-73
2022/12/30 10:00:11;;;;;;;25.10;19.20;;;;;;;7.16;100.00;99170.81;105407;1298;65974;-71
2022/12/30 10:02:57;;;;;;;25.10;19.10;;;;;;;7.29;100.00;99173.20;105512;1295;60887;-71
2022/12/30 10:05:34;;;;;;;28.40;19.90;;;;;;;7.46;100.00;99173.73;105506;1297;72964;-71
2022/12/30 10:08:21;;;;;;;25.80;20.40;;;;;;;7.58;100.00;99170.09;105519;1301;58994;-72
2022/12/30 10:10:56;;;;;;;25.10;19.30;;;;;;;7.67;100.00;99168.60;105510;1295;59152;-71
2022/12/30 10:13:51;;;;;;;24.20;18.80;;;;;;;7.74;100.00;99169.45;105510;1294;67459;-72
2022/12/30 10:16:56;;;;;;;20.90;16.70;;;;;;;7.78;100.00;99167.32;104936;1302;59892;-73
2022/12/30 10:19:52;;;;;;;22.00;16.30;;;;;;;7.70;100.00;99169.33;104158;1316;65211;-72
2022/12/30 10:22:56;;;;;;;22.50;16.70;;;;;;;7.62;100.00;99168.66;104743;1303;59199;-72
2022/12/30 10:25:34;;;;;;;22.10;16.60;;;;;;;7.63;100.00;99171.80;104276;1306;58905;-72
2022/12/30 10:28:02;;;;;;;21.00;16.10;;;;;;;7.70;100.00;99174.09;104256;1314;66948;-73
2022/12/30 10:30:37;;;;;;;20.30;16.10;;;;;;;7.84;100.00;99177.41;104269;1314;60244;-72
2022/12/30 10:33:14;;;;;;;20.40;17.40;;;;;;;8.01;100.00;99174.24;104283;1310;65060;-72
2022/12/30 10:35:42;;;;;;;21.00;15.80;;;;;;;8.18;100.00;99169.23;104239;1309;59593;-72
2022/12/30 10:38:15;;;;;;;19.40;15.40;;;;;;;8.28;100.00;99165.48;104261;1308;59272;-69
2022/12/30 10:40:53;;;;;;;19.10;14.60;;;;;;;8.37;100.00;99163.97;104252;1308;65977;-71
2022/12/30 10:43:32;;;;;;;16.60;14.90;;;;;;;8.44;100.00;99158.29;104282;1309;61024;-70
2022/12/30 10:46:18;;;;;;;19.60;14.60;;;;;;;8.51;100.00;99154.52;104249;1315;65012;-70
2022/12/30 10:49:02;;;;;;;15.00;13.40;;;;;;;8.60;100.00;99156.54;104257;1314;59275;-71
2022/12/30 10:51:28;;;;;;;17.00;12.90;;;;;;;8.63;100.00;99157.75;104289;1311;58960;-71
2022/12/30 10:53:55;;;;;;;15.60;12.40;;;;;;;8.65;100.00;99161.73;104902;1309;67479;-71
2022/12/30 10:56:27;;;;;;;15.70;12.80;;;;;;;8.64;100.00;99169.92;105163;1304;60287;-71
2022/12/30 10:58:58;;;;;;;15.90;12.90;;;;;;;8.63;100.00;99172.81;105377;1305;63988;-72
2022/12/30 11:01:30;;;;;;;14.10;12.40;;;;;;;8.60;100.00;99177.09;105399;1297;58969;-70
2022/12/30 11:03:58;;;;;;;18.00;14.10;;;;;;;8.52;100.00;99181.20;105670;1294;59010;-70
2022/12/30 11:06:30;;;;;;;17.40;13.90;;;;;;;8.47;100.00;99182.58;106028;1289;73493;-71
2022/12/30 11:09:11;;;;;;;17.20;14.60;;;;;;;8.43;100.00;99181.89;106053;1295;61294;-72
2022/12/30 11:14:58;;;;;;;17.00;13.90;;;;;;;8.38;100.00;99181.96;106057;1288;58985;-71
2022/12/30 11:17:27;;;;;;;16.50;14.50;;;;;;;8.39;100.00;99182.45;106035;1289;59270;-70
2022/12/30 11:19:56;;;;;;;16.70;13.70;;;;;;;8.42;100.00;99177.90;106077;1288;67132;-71
2022/12/30 11:22:23;;;;;;;16.20;13.60;;;;;;;8.44;100.00;99177.39;106057;1287;59736;-70
2022/12/30 11:25:01;;;;;;;17.30;13.90;;;;;;;8.48;100.00;99180.73;106032;1292;64857;-70
2022/12/30 11:27:39;;;;;;;17.40;13.70;;;;;;;8.54;100.00;99183.73;106029;1289;58896;-71
2022/12/30 11:30:06;;;;;;;15.00;13.10;;;;;;;8.62;100.00;99182.81;106058;1288;58872;-70
2022/12/30 11:32:34;;;;;;;17.40;13.70;;;;;;;8.66;100.00;99180.95;106054;1287;66326;-71
2022/12/30 11:35:00;;;;;;;17.70;13.60;;;;;;;8.69;100.00;99177.23;106035;1288;60903;-70
2022/12/30 11:37:36;;;;;;;17.70;14.60;;;;;;;8.73;100.00;99175.98;105737;1288;58987;-73
2022/12/30 11:40:22;;;;;;;15.30;13.20;;;;;;;8.77;100.00;99180.30;106053;1295;59231;-70
2022/12/30 11:43:04;;;;;;;18.50;14.10;;;;;;;8.83;100.00;99183.55;106037;1287;58920;-70
2022/12/30 11:45:31;;;;;;;16.20;14.40;;;;;;;8.84;100.00;99184.73;106042;1288;73937;-70
2022/12/30 11:47:58;;;;;;;17.50;14.80;;;;;;;8.85;100.00;99188.39;105808;1285;58976;-71
2022/12/30 11:50:25;;;;;;;20.30;16.00;;;;;;;8.87;100.00;99187.96;105996;1288;64831;-71
2022/12/30 11:52:56;;;;;;;22.30;16.70;;;;;;;8.88;100.00;99184.52;106045;1289;58938;-71
2022/12/30 11:55:24;;;;;;;22.60;17.50;;;;;;;8.88;100.00;99190.00;106065;1288;58877;-71
2022/12/30 11:57:55;;;;;;;22.50;17.20;;;;;;;8.87;100.00;99192.02;106055;1281;65971;-71
2022/12/30 12:00:37;;;;;;;19.90;16.30;;;;;;;8.87;100.00;99188.63;106050;1287;61373;-71
2022/12/30 12:03:14;;;;;;;22.10;16.60;;;;;;;8.89;100.00;99185.37;105839;1291;64356;-70
2022/12/30 12:05:43;;;;;;;22.50;17.10;;;;;;;8.86;100.00;99185.86;106057;1287;59030;-71
2022/12/30 12:08:21;;;;;;;22.20;16.90;;;;;;;8.81;100.00;99185.81;106051;1281;58954;-70
2022/12/30 12:10:55;;;;;;;22.30;17.30;;;;;;;8.73;100.00;99180.76;106045;1288;65793;-71
2022/12/30 12:13:33;;;;;;;20.50;16.50;;;;;;;8.64;100.00;99178.98;106038;1289;59842;-70
2022/12/30 12:16:00;;;;;;;20.80;17.30;;;;;;;8.54;100.00;99180.40;106032;1281;64112;-71
2022/12/30 12:18:41;;;;;;;20.70;17.10;;;;;;;8.48;100.00;99180.70;106056;1287;58977;-71